Not for real navigation | The accuracy of this data is not assured | See disclaimer for more information
ICAO NAME COUNTRY WIND Kt GUST Kt VIS TEMP/DEW BARO
CYHY Hay River, N. W. T. Canada 0 0 19200 -28/-31 30.75
CYHY 180600Z 00000KT 12SM -SN SCT004 BKN011 M28/M31 A3075 RMK SC3SC4 SLP444
KMSS MASSENA INTERNATIONAL -RICHARD NY United States 0 0 9999 -19/-22 30.75
KMSS 180553Z AUTO 00000KT 10SM CAVOK M19/M22 A3075 RMK AO2 SLP424 T11891222 11172 21206 58022
SLLP La Paz / Alto Bolivia 0 0 9999 4/3 30.74
SLLP 180600Z 00000KT 9999 FEW013 BKN200 04/03 Q1041
KBTV BURLINGTON INTERNATIONAL VT United States 6 0 9999 -18/-22 30.73
KBTV 180449Z 09006KT 10SM CAVOK M18/M22 A3073
KFSO 0 0 9999 -21/-24 30.73
KFSO 180555Z AUTO 00000KT 10SM CAVOK M21/M24 A3073 RMK AO2 T12121240 11188 21227

Show more

Close Menu